sensor_id;sensor_type;location;lat;lon;timestamp;pressure;altitude;pressure_sealevel;temperature;humidity
73633;BME280;61927;50.080;14.418;2022-11-11T00:01:35;100913.22;;;7.57;80.82
73633;BME280;61927;50.080;14.418;2022-11-11T00:04:01;100907.94;;;7.57;81.20
73633;BME280;61927;50.080;14.418;2022-11-11T00:06:26;100917.66;;;7.57;80.87
73633;BME280;61927;50.080;14.418;2022-11-11T00:08:52;100922.97;;;7.55;80.68
73633;BME280;61927;50.080;14.418;2022-11-11T00:11:17;100926.56;;;7.53;80.92
73633;BME280;61927;50.080;14.418;2022-11-11T00:13:43;100922.16;;;7.53;80.68
73633;BME280;61927;50.080;14.418;2022-11-11T00:16:14;100930.19;;;7.49;80.99
73633;BME280;61927;50.080;14.418;2022-11-11T00:18:41;100926.75;;;7.45;80.82
73633;BME280;61927;50.080;14.418;2022-11-11T00:21:26;100929.56;;;7.39;81.31
73633;BME280;61927;50.080;14.418;2022-11-11T00:24:26;100929.63;;;7.36;81.35
73633;BME280;61927;50.080;14.418;2022-11-11T00:27:12;100924.34;;;7.36;81.26
73633;BME280;61927;50.080;14.418;2022-11-11T00:29:38;100921.78;;;7.33;81.32
73633;BME280;61927;50.080;14.418;2022-11-11T00:32:05;100918.28;;;7.32;81.37
73633;BME280;61927;50.080;14.418;2022-11-11T00:34:51;100912.25;;;7.27;81.36
73633;BME280;61927;50.080;14.418;2022-11-11T00:37:35;100925.53;;;7.24;81.71
73633;BME280;61927;50.080;14.418;2022-11-11T00:40:00;100932.59;;;7.22;81.96
73633;BME280;61927;50.080;14.418;2022-11-11T00:42:26;100929.06;;;7.23;81.57
73633;BME280;61927;50.080;14.418;2022-11-11T00:44:53;100930.00;;;7.21;81.83
73633;BME280;61927;50.080;14.418;2022-11-11T00:47:18;100932.72;;;7.18;82.03
73633;BME280;61927;50.080;14.418;2022-11-11T00:50:06;100936.34;;;7.13;81.96
73633;BME280;61927;50.080;14.418;2022-11-11T00:52:52;100938.94;;;7.15;81.86
73633;BME280;61927;50.080;14.418;2022-11-11T00:55:18;100938.91;;;7.17;81.99
73633;BME280;61927;50.080;14.418;2022-11-11T00:57:43;100933.59;;;7.18;82.15
73633;BME280;61927;50.080;14.418;2022-11-11T01:00:10;100936.13;;;7.23;81.75
73633;BME280;61927;50.080;14.418;2022-11-11T01:02:35;100938.00;;;7.18;81.70
73633;BME280;61927;50.080;14.418;2022-11-11T01:05:01;100945.06;;;7.17;82.09
73633;BME280;61927;50.080;14.418;2022-11-11T01:07:26;100953.13;;;7.11;82.04
73633;BME280;61927;50.080;14.418;2022-11-11T01:09:52;100956.63;;;7.11;82.16
73633;BME280;61927;50.080;14.418;2022-11-11T01:12:17;100953.13;;;7.11;82.08
73633;BME280;61927;50.080;14.418;2022-11-11T01:14:43;100951.41;;;7.08;82.28
73633;BME280;61927;50.080;14.418;2022-11-11T01:17:08;100955.78;;;7.09;82.13
73633;BME280;61927;50.080;14.418;2022-11-11T01:19:34;100964.69;;;7.05;82.13
73633;BME280;61927;50.080;14.418;2022-11-11T01:22:00;100963.03;;;7.01;82.75
73633;BME280;61927;50.080;14.418;2022-11-11T01:24:26;100959.47;;;7.02;82.21
73633;BME280;61927;50.080;14.418;2022-11-11T01:26:52;100954.19;;;7.02;82.11
73633;BME280;61927;50.080;14.418;2022-11-11T01:29:18;100963.03;;;7.01;82.28
73633;BME280;61927;50.080;14.418;2022-11-11T01:31:44;100959.69;;;6.93;82.27
73633;BME280;61927;50.080;14.418;2022-11-11T01:34:09;100961.47;;;6.93;82.75
73633;BME280;61927;50.080;14.418;2022-11-11T01:36:35;100964.03;;;6.96;82.61
73633;BME280;61927;50.080;14.418;2022-11-11T01:39:01;100965.78;;;6.97;82.48
73633;BME280;61927;50.080;14.418;2022-11-11T01:41:33;100961.44;;;6.94;82.02
73633;BME280;61927;50.080;14.418;2022-11-11T01:46:40;100967.81;;;6.84;82.38
73633;BME280;61927;50.080;14.418;2022-11-11T01:54:37;100967.03;;;6.80;82.67
73633;BME280;61927;50.080;14.418;2022-11-11T01:57:20;100965.22;;;6.83;82.30
73633;BME280;61927;50.080;14.418;2022-11-11T01:59:53;100953.00;;;6.78;82.67
73633;BME280;61927;50.080;14.418;2022-11-11T02:02:48;100952.03;;;6.83;82.79
73633;BME280;61927;50.080;14.418;2022-11-11T02:05:17;100958.13;;;6.85;82.82
73633;BME280;61927;50.080;14.418;2022-11-11T02:08:11;100951.19;;;6.80;82.38
73633;BME280;61927;50.080;14.418;2022-11-11T02:10:41;100944.19;;;6.79;82.38
73633;BME280;61927;50.080;14.418;2022-11-11T02:13:13;100945.06;;;6.78;82.64
73633;BME280;61927;50.080;14.418;2022-11-11T02:15:58;100947.78;;;6.75;82.67
73633;BME280;61927;50.080;14.418;2022-11-11T02:18:24;100948.75;;;6.71;82.78
73633;BME280;61927;50.080;14.418;2022-11-11T02:20:49;100941.78;;;6.69;83.10
73633;BME280;61927;50.080;14.418;2022-11-11T02:23:25;100938.31;;;6.67;82.81
73633;BME280;61927;50.080;14.418;2022-11-11T02:25:53;100938.31;;;6.67;83.07
73633;BME280;61927;50.080;14.418;2022-11-11T02:28:23;100948.88;;;6.65;82.75
73633;BME280;61927;50.080;14.418;2022-11-11T02:30:50;100936.63;;;6.63;82.83
73633;BME280;61927;50.080;14.418;2022-11-11T02:33:15;100943.69;;;6.62;82.97
73633;BME280;61927;50.080;14.418;2022-11-11T02:35:48;100938.47;;;6.59;83.42
73633;BME280;61927;50.080;14.418;2022-11-11T02:38:22;100944.66;;;6.58;83.37
73633;BME280;61927;50.080;14.418;2022-11-11T02:40:47;100945.59;;;6.56;83.33
73633;BME280;61927;50.080;14.418;2022-11-11T02:43:32;100941.22;;;6.55;83.25
73633;BME280;61927;50.080;14.418;2022-11-11T02:45:59;100942.13;;;6.54;83.22
73633;BME280;61927;50.080;14.418;2022-11-11T02:48:25;100950.88;;;6.54;83.26
73633;BME280;61927;50.080;14.418;2022-11-11T02:50:51;100955.25;;;6.55;83.61
73633;BME280;61927;50.080;14.418;2022-11-11T02:53:16;100955.22;;;6.57;83.33
73633;BME280;61927;50.080;14.418;2022-11-11T02:55:42;100960.50;;;6.57;83.11
73633;BME280;61927;50.080;14.418;2022-11-11T02:58:08;100974.63;;;6.54;83.25
73633;BME280;61927;50.080;14.418;2022-11-11T03:00:34;100981.72;;;6.51;83.37
73633;BME280;61927;50.080;14.418;2022-11-11T03:02:59;100983.63;;;6.44;83.38
73633;BME280;61927;50.080;14.418;2022-11-11T03:05:25;100986.28;;;6.42;83.81
73633;BME280;61927;50.080;14.418;2022-11-11T03:07:50;100988.91;;;6.44;83.57
73633;BME280;61927;50.080;14.418;2022-11-11T03:10:16;100991.56;;;6.42;83.37
73633;BME280;61927;50.080;14.418;2022-11-11T03:12:41;100996.00;;;6.40;83.42
73633;BME280;61927;50.080;14.418;2022-11-11T03:15:07;100992.31;;;6.49;82.71
73633;BME280;61927;50.080;14.418;2022-11-11T03:17:33;100993.22;;;6.48;83.16
73633;BME280;61927;50.080;14.418;2022-11-11T03:23:04;100983.75;;;6.38;82.91
73633;BME280;61927;50.080;14.418;2022-11-11T03:25:30;100977.59;;;6.37;83.21
73633;BME280;61927;50.080;14.418;2022-11-11T03:28:14;100973.22;;;6.38;83.13
73633;BME280;61927;50.080;14.418;2022-11-11T03:30:41;100972.34;;;6.37;83.32
73633;BME280;61927;50.080;14.418;2022-11-11T03:33:08;100970.53;;;6.39;82.92
73633;BME280;61927;50.080;14.418;2022-11-11T03:35:34;100977.59;;;6.37;82.84
73633;BME280;61927;50.080;14.418;2022-11-11T03:38:00;100972.41;;;6.34;83.20
73633;BME280;61927;50.080;14.418;2022-11-11T03:40:47;100969.03;;;6.28;83.04
73633;BME280;61927;50.080;14.418;2022-11-11T03:43:14;100970.94;;;6.20;83.36
73633;BME280;61927;50.080;14.418;2022-11-11T03:45:41;100971.97;;;6.12;82.83
73633;BME280;61927;50.080;14.418;2022-11-11T03:48:07;100973.78;;;6.09;83.61
73633;BME280;61927;50.080;14.418;2022-11-11T03:50:33;100973.84;;;6.06;83.32
73633;BME280;61927;50.080;14.418;2022-11-11T03:52:58;100971.25;;;6.03;83.44
73633;BME280;61927;50.080;14.418;2022-11-11T03:55:24;100973.06;;;6.01;83.72
73633;BME280;61927;50.080;14.418;2022-11-11T03:57:50;100984.59;;;5.95;83.34
73633;BME280;61927;50.080;14.418;2022-11-11T04:00:20;100962.63;;;5.95;83.23
73633;BME280;61927;50.080;14.418;2022-11-11T04:02:47;100965.31;;;5.92;83.70
73633;BME280;61927;50.080;14.418;2022-11-11T04:05:31;100968.00;;;5.90;83.78
73633;BME280;61927;50.080;14.418;2022-11-11T04:08:16;100978.53;;;5.89;83.65
73633;BME280;61927;50.080;14.418;2022-11-11T04:11:12;100982.19;;;5.80;83.62
73633;BME280;61927;50.080;14.418;2022-11-11T04:13:44;100984.84;;;5.78;83.99
73633;BME280;61927;50.080;14.418;2022-11-11T04:16:30;100982.25;;;5.77;84.07
73633;BME280;61927;50.080;14.418;2022-11-11T04:18:55;100980.53;;;5.74;84.21
73633;BME280;61927;50.080;14.418;2022-11-11T04:21:40;100991.03;;;5.76;84.11
73633;BME280;61927;50.080;14.418;2022-11-11T04:24:14;100992.88;;;5.72;84.19
73633;BME280;61927;50.080;14.418;2022-11-11T04:27:00;100985.81;;;5.74;84.16
73633;BME280;61927;50.080;14.418;2022-11-11T04:29:27;100989.28;;;5.76;83.93
73633;BME280;61927;50.080;14.418;2022-11-11T04:34:48;100989.28;;;5.76;84.33
73633;BME280;61927;50.080;14.418;2022-11-11T04:37:14;100980.47;;;5.77;84.07
73633;BME280;61927;50.080;14.418;2022-11-11T04:39:40;100988.34;;;5.79;84.64
73633;BME280;61927;50.080;14.418;2022-11-11T04:42:25;100988.34;;;5.79;84.10
73633;BME280;61927;50.080;14.418;2022-11-11T04:44:51;100991.84;;;5.81;84.57
73633;BME280;61927;50.080;14.418;2022-11-11T04:47:36;100991.81;;;5.82;83.57
73633;BME280;61927;50.080;14.418;2022-11-11T04:50:03;100991.81;;;5.82;84.08
73633;BME280;61927;50.080;14.418;2022-11-11T04:52:28;100992.66;;;5.83;83.67
73633;BME280;61927;50.080;14.418;2022-11-11T04:54:55;100995.25;;;5.86;83.36
73633;BME280;61927;50.080;14.418;2022-11-11T04:57:45;100990.81;;;5.88;83.92
73633;BME280;61927;50.080;14.418;2022-11-11T05:00:16;100994.31;;;5.89;84.02
73633;BME280;61927;50.080;14.418;2022-11-11T05:02:42;100987.34;;;5.86;83.83
73633;BME280;61927;50.080;14.418;2022-11-11T05:05:27;100994.34;;;5.87;83.91
73633;BME280;61927;50.080;14.418;2022-11-11T05:07:54;100999.63;;;5.87;84.36
73633;BME280;61927;50.080;14.418;2022-11-11T05:10:38;101004.72;;;5.98;83.59
73633;BME280;61927;50.080;14.418;2022-11-11T05:13:04;101003.00;;;5.97;83.56
73633;BME280;61927;50.080;14.418;2022-11-11T05:15:48;100999.56;;;5.93;83.75
73633;BME280;61927;50.080;14.418;2022-11-11T05:18:33;101002.19;;;5.93;83.90
73633;BME280;61927;50.080;14.418;2022-11-11T05:21:21;101006.59;;;5.91;83.77
73633;BME280;61927;50.080;14.418;2022-11-11T05:23:48;101009.28;;;5.90;83.91
73633;BME280;61927;50.080;14.418;2022-11-11T05:26:32;101018.03;;;5.90;83.65
73633;BME280;61927;50.080;14.418;2022-11-11T05:28:58;101022.34;;;5.96;83.54
73633;BME280;61927;50.080;14.418;2022-11-11T05:31:23;101022.16;;;6.05;83.63
73633;BME280;61927;50.080;14.418;2022-11-11T05:33:49;101019.59;;;6.02;83.23
73633;BME280;61927;50.080;14.418;2022-11-11T05:36:14;101019.66;;;5.99;83.53
73633;BME280;61927;50.080;14.418;2022-11-11T05:38:40;101017.91;;;5.98;83.05
73633;BME280;61927;50.080;14.418;2022-11-11T05:41:06;101013.38;;;6.06;83.18
73633;BME280;61927;50.080;14.418;2022-11-11T05:43:32;101002.78;;;6.09;83.11
73633;BME280;61927;50.080;14.418;2022-11-11T05:45:58;101001.94;;;6.07;83.18
73633;BME280;61927;50.080;14.418;2022-11-11T05:48:23;100998.44;;;6.06;83.15
73633;BME280;61927;50.080;14.418;2022-11-11T05:50:49;101003.69;;;6.06;82.51
73633;BME280;61927;50.080;14.418;2022-11-11T05:53:14;100992.09;;;6.17;82.72
73633;BME280;61927;50.080;14.418;2022-11-11T05:55:40;100992.91;;;6.19;82.53
73633;BME280;61927;50.080;14.418;2022-11-11T05:58:05;100983.22;;;6.21;82.07
73633;BME280;61927;50.080;14.418;2022-11-11T06:00:31;100985.81;;;6.22;82.25
73633;BME280;61927;50.080;14.418;2022-11-11T06:03:03;100991.94;;;6.24;82.26
73633;BME280;61927;50.080;14.418;2022-11-11T06:05:30;101006.91;;;6.22;82.22
73633;BME280;61927;50.080;14.418;2022-11-11T06:07:56;100999.03;;;6.21;82.23
73633;BME280;61927;50.080;14.418;2022-11-11T06:10:21;101002.47;;;6.24;83.00
73633;BME280;61927;50.080;14.418;2022-11-11T06:12:57;101000.75;;;6.23;82.60
73633;BME280;61927;50.080;14.418;2022-11-11T06:15:36;101005.16;;;6.23;81.95
73633;BME280;61927;50.080;14.418;2022-11-11T06:18:03;101005.19;;;6.20;82.49
73633;BME280;61927;50.080;14.418;2022-11-11T06:20:29;101005.25;;;6.17;82.50
73633;BME280;61927;50.080;14.418;2022-11-11T06:22:55;101012.34;;;6.13;82.38
73633;BME280;61927;50.080;14.418;2022-11-11T06:25:26;101018.56;;;6.10;82.61
73633;BME280;61927;50.080;14.418;2022-11-11T06:28:11;101026.44;;;6.12;82.68
73633;BME280;61927;50.080;14.418;2022-11-11T06:30:37;101029.06;;;6.12;82.75
73633;BME280;61927;50.080;14.418;2022-11-11T06:33:03;101038.56;;;6.21;82.22
73633;BME280;61927;50.080;14.418;2022-11-11T06:35:29;101048.19;;;6.23;82.05
73633;BME280;61927;50.080;14.418;2022-11-11T06:37:54;101045.56;;;6.23;82.03
73633;BME280;61927;50.080;14.418;2022-11-11T06:40:20;101045.56;;;6.23;81.86
73633;BME280;61927;50.080;14.418;2022-11-11T06:42:45;101046.41;;;6.25;82.04
73633;BME280;61927;50.080;14.418;2022-11-11T06:45:11;101059.41;;;6.34;81.10
73633;BME280;61927;50.080;14.418;2022-11-11T06:47:36;101055.91;;;6.34;81.33
73633;BME280;61927;50.080;14.418;2022-11-11T06:50:02;101058.41;;;6.40;81.70
73633;BME280;61927;50.080;14.418;2022-11-11T06:52:28;101057.47;;;6.44;81.10
73633;BME280;61927;50.080;14.418;2022-11-11T06:54:53;101048.63;;;6.46;81.38
73633;BME280;61927;50.080;14.418;2022-11-11T06:57:22;101048.56;;;6.50;81.64
73633;BME280;61927;50.080;14.418;2022-11-11T06:59:47;101046.75;;;6.52;80.72
73633;BME280;61927;50.080;14.418;2022-11-11T07:02:13;101052.03;;;6.52;80.82
73633;BME280;61927;50.080;14.418;2022-11-11T07:04:39;101055.53;;;6.52;80.95
73633;BME280;61927;50.080;14.418;2022-11-11T07:07:04;101061.59;;;6.57;80.99
73633;BME280;61927;50.080;14.418;2022-11-11T07:09:30;101064.91;;;6.67;80.47
73633;BME280;61927;50.080;14.418;2022-11-11T07:11:56;101059.63;;;6.68;80.68
73633;BME280;61927;50.080;14.418;2022-11-11T07:14:21;101062.13;;;6.74;80.72
73633;BME280;61927;50.080;14.418;2022-11-11T07:16:47;101059.44;;;6.76;80.43
73633;BME280;61927;50.080;14.418;2022-11-11T07:19:13;101058.47;;;6.82;80.40
73633;BME280;61927;50.080;14.418;2022-11-11T07:21:38;101061.94;;;6.84;80.23
73633;BME280;61927;50.080;14.418;2022-11-11T07:24:04;101063.63;;;6.86;80.18
73633;BME280;61927;50.080;14.418;2022-11-11T07:26:29;101061.75;;;6.93;79.93
73633;BME280;61927;50.080;14.418;2022-11-11T07:28:55;101060.66;;;7.03;79.68
73633;BME280;61927;50.080;14.418;2022-11-11T07:31:21;101057.16;;;7.01;79.60
73633;BME280;61927;50.080;14.418;2022-11-11T07:33:46;101066.81;;;7.02;79.22
73633;BME280;61927;50.080;14.418;2022-11-11T07:36:12;101080.84;;;7.04;79.52
73633;BME280;61927;50.080;14.418;2022-11-11T07:38:37;101077.19;;;7.11;78.84
73633;BME280;61927;50.080;14.418;2022-11-11T07:41:03;101064.06;;;7.08;79.31
73633;BME280;61927;50.080;14.418;2022-11-11T07:43:29;101062.28;;;7.08;79.59
73633;BME280;61927;50.080;14.418;2022-11-11T07:45:55;101069.34;;;7.08;79.36
73633;BME280;61927;50.080;14.418;2022-11-11T07:48:20;101064.06;;;7.08;78.96
73633;BME280;61927;50.080;14.418;2022-11-11T07:50:46;101063.16;;;7.09;79.16
73633;BME280;61927;50.080;14.418;2022-11-11T07:53:11;101068.34;;;7.12;79.33
73633;BME280;61927;50.080;14.418;2022-11-11T07:55:37;101068.22;;;7.18;78.85
73633;BME280;61927;50.080;14.418;2022-11-11T07:58:02;101069.91;;;7.22;78.75
73633;BME280;61927;50.080;14.418;2022-11-11T08:00:28;101078.75;;;7.20;78.63
73633;BME280;61927;50.080;14.418;2022-11-11T08:02:54;101064.66;;;7.21;79.06
73633;BME280;61927;50.080;14.418;2022-11-11T08:05:19;101071.34;;;7.35;78.63
73633;BME280;61927;50.080;14.418;2022-11-11T08:07:45;101074.75;;;7.40;78.44
73633;BME280;61927;50.080;14.418;2022-11-11T08:10:11;101067.78;;;7.38;78.52
73633;BME280;61927;50.080;14.418;2022-11-11T08:12:37;101072.16;;;7.39;78.99
73633;BME280;61927;50.080;14.418;2022-11-11T08:15:21;101060.47;;;7.49;78.36
73633;BME280;61927;50.080;14.418;2022-11-11T08:17:47;101065.88;;;7.44;78.23
73633;BME280;61927;50.080;14.418;2022-11-11T08:20:13;101067.66;;;7.42;78.69
73633;BME280;61927;50.080;14.418;2022-11-11T08:22:39;101071.25;;;7.40;78.42
73633;BME280;61927;50.080;14.418;2022-11-11T08:25:07;101078.09;;;7.49;78.60
73633;BME280;61927;50.080;14.418;2022-11-11T08:27:34;101084.09;;;7.55;78.30
73633;BME280;61927;50.080;14.418;2022-11-11T08:30:00;101098.22;;;7.54;78.67
73633;BME280;61927;50.080;14.418;2022-11-11T08:32:26;101107.00;;;7.55;78.66
73633;BME280;61927;50.080;14.418;2022-11-11T08:34:51;101114.97;;;7.53;78.86
73633;BME280;61927;50.080;14.418;2022-11-11T08:37:17;101111.34;;;7.57;78.70
73633;BME280;61927;50.080;14.418;2022-11-11T08:39:42;101108.59;;;7.62;78.96
73633;BME280;61927;50.080;14.418;2022-11-11T08:42:08;101112.84;;;7.69;78.65
73633;BME280;61927;50.080;14.418;2022-11-11T08:44:33;101107.44;;;7.73;78.90
73633;BME280;61927;50.080;14.418;2022-11-11T08:46:59;101108.25;;;7.77;78.96
73633;BME280;61927;50.080;14.418;2022-11-11T08:49:24;101101.09;;;7.81;78.65
73633;BME280;61927;50.080;14.418;2022-11-11T08:51:50;101105.38;;;7.86;78.95
73633;BME280;61927;50.080;14.418;2022-11-11T08:54:16;101098.91;;;7.98;78.27
73633;BME280;61927;50.080;14.418;2022-11-11T08:56:41;101096.91;;;8.07;77.44
73633;BME280;61927;50.080;14.418;2022-11-11T08:59:08;101095.09;;;8.09;77.91
73633;BME280;61927;50.080;14.418;2022-11-11T09:01:35;101103.69;;;8.18;77.91
73633;BME280;61927;50.080;14.418;2022-11-11T09:04:00;101107.13;;;8.21;77.50
73633;BME280;61927;50.080;14.418;2022-11-11T09:06:29;101108.09;;;8.19;77.73
73633;BME280;61927;50.080;14.418;2022-11-11T09:08:55;101111.78;;;8.12;78.18
73633;BME280;61927;50.080;14.418;2022-11-11T09:11:21;101120.56;;;8.14;78.34
73633;BME280;61927;50.080;14.418;2022-11-11T09:13:47;101127.47;;;8.19;78.59
73633;BME280;61927;50.080;14.418;2022-11-11T09:16:12;101118.59;;;8.22;78.23
73633;BME280;61927;50.080;14.418;2022-11-11T09:18:38;101129.94;;;8.25;78.62
73633;BME280;61927;50.080;14.418;2022-11-11T09:21:05;101126.13;;;8.38;77.51
73633;BME280;61927;50.080;14.418;2022-11-11T09:23:31;101132.91;;;8.49;77.54
73633;BME280;61927;50.080;14.418;2022-11-11T09:25:59;101130.97;;;8.55;77.50
73633;BME280;61927;50.080;14.418;2022-11-11T09:28:30;101142.78;;;8.74;77.60
73633;BME280;61927;50.080;14.418;2022-11-11T09:31:00;101136.25;;;8.88;76.73
73633;BME280;61927;50.080;14.418;2022-11-11T09:33:26;101137.72;;;8.98;76.33
73633;BME280;61927;50.080;14.418;2022-11-11T09:35:52;101146.13;;;9.12;75.89
73633;BME280;61927;50.080;14.418;2022-11-11T09:38:18;101145.91;;;9.20;75.89
73633;BME280;61927;50.080;14.418;2022-11-11T09:41:11;101163.38;;;9.27;75.85
73633;BME280;61927;50.080;14.418;2022-11-11T09:46:26;101155.28;;;9.31;76.27
73633;BME280;61927;50.080;14.418;2022-11-11T09:57:42;101165.28;;;9.51;75.77
73633;BME280;61927;50.080;14.418;2022-11-11T10:00:19;101166.78;;;9.60;75.13
73633;BME280;61927;50.080;14.418;2022-11-11T10:02:54;101167.53;;;9.65;75.37
73633;BME280;61927;50.080;14.418;2022-11-11T10:08:21;101156.59;;;9.76;75.36
73633;BME280;61927;50.080;14.418;2022-11-11T10:10:52;101159.72;;;9.88;74.65
73633;BME280;61927;50.080;14.418;2022-11-11T10:13:32;101154.22;;;9.94;74.79
73633;BME280;61927;50.080;14.418;2022-11-11T10:16:39;101157.44;;;10.04;74.44
73633;BME280;61927;50.080;14.418;2022-11-11T10:19:29;101150.25;;;10.08;73.96
73633;BME280;61927;50.080;14.418;2022-11-11T10:22:20;101142.25;;;10.09;74.14
73633;BME280;61927;50.080;14.418;2022-11-11T10:24:57;101146.38;;;10.18;74.04
73633;BME280;61927;50.080;14.418;2022-11-11T10:27:26;101138.31;;;10.22;74.01
73633;BME280;61927;50.080;14.418;2022-11-11T10:29:52;101135.50;;;10.27;74.03
73633;BME280;61927;50.080;14.418;2022-11-11T10:34:46;101126.63;;;10.28;73.35
73633;BME280;61927;50.080;14.418;2022-11-11T10:37:22;101136.41;;;10.26;73.66
73633;BME280;61927;50.080;14.418;2022-11-11T10:39:57;101120.34;;;10.30;73.69
73633;BME280;61927;50.080;14.418;2022-11-11T10:42:24;101116.44;;;10.41;73.29
73633;BME280;61927;50.080;14.418;2022-11-11T10:44:55;101114.59;;;10.43;73.57
73633;BME280;61927;50.080;14.418;2022-11-11T10:47:45;101110.88;;;10.48;73.07
73633;BME280;61927;50.080;14.418;2022-11-11T10:50:25;101113.59;;;10.47;73.74
73633;BME280;61927;50.080;14.418;2022-11-11T10:53:15;101118.88;;;10.47;72.95
73633;BME280;61927;50.080;14.418;2022-11-11T10:56:13;101126.75;;;10.50;73.37
73633;BME280;61927;50.080;14.418;2022-11-11T10:58:51;101124.03;;;10.51;73.07
73633;BME280;61927;50.080;14.418;2022-11-11T11:01:53;101116.94;;;10.52;72.97
73633;BME280;61927;50.080;14.418;2022-11-11T11:07:23;101126.63;;;10.53;72.92
73633;BME280;61927;50.080;14.418;2022-11-11T11:10:11;101120.31;;;10.57;72.60
73633;BME280;61927;50.080;14.418;2022-11-11T11:12:49;101126.75;;;10.50;72.43
73633;BME280;61927;50.080;14.418;2022-11-11T11:15:19;101113.75;;;10.42;73.03
73633;BME280;61927;50.080;14.418;2022-11-11T11:20:17;101118.41;;;10.35;73.34
73633;BME280;61927;50.080;14.418;2022-11-11T11:25:18;101116.44;;;10.41;73.42
73633;BME280;61927;50.080;14.418;2022-11-11T11:27:44;101104.91;;;10.42;73.19
73633;BME280;61927;50.080;14.418;2022-11-11T11:30:15;101117.81;;;10.52;73.87
73633;BME280;61927;50.080;14.418;2022-11-11T11:35:36;101099.53;;;10.68;73.28
73633;BME280;61927;50.080;14.418;2022-11-11T11:38:04;101087.72;;;10.77;72.93
73633;BME280;61927;50.080;14.418;2022-11-11T11:40:50;101092.81;;;10.83;73.13
73633;BME280;61927;50.080;14.418;2022-11-11T11:43:32;101096.88;;;10.93;73.02
73633;BME280;61927;50.080;14.418;2022-11-11T11:46:01;101096.41;;;11.05;72.15
73633;BME280;61927;50.080;14.418;2022-11-11T11:48:44;101096.28;;;11.08;71.75
73633;BME280;61927;50.080;14.418;2022-11-11T11:54:12;101094.97;;;10.96;72.40
73633;BME280;61927;50.080;14.418;2022-11-11T11:56:50;101097.03;;;10.88;72.75
73633;BME280;61927;50.080;14.418;2022-11-11T11:59:27;101090.09;;;10.84;72.87
73633;BME280;61927;50.080;14.418;2022-11-11T12:10:43;101098.81;;;10.88;73.41
73633;BME280;61927;50.080;14.418;2022-11-11T12:13:24;101103.75;;;10.98;72.95
73633;BME280;61927;50.080;14.418;2022-11-11T12:19:09;101104.53;;;11.00;72.82
73633;BME280;61927;50.080;14.418;2022-11-11T12:22:06;101100.38;;;10.93;73.57
73633;BME280;61927;50.080;14.418;2022-11-11T12:28:09;101089.06;;;10.88;73.35
73633;BME280;61927;50.080;14.418;2022-11-11T12:30:16;101086.41;;;10.88;73.90
73633;BME280;61927;50.080;14.418;2022-11-11T12:38:05;101076.94;;;11.05;73.47
73633;BME280;61927;50.080;14.418;2022-11-11T12:40:45;101076.72;;;11.11;73.05
73633;BME280;61927;50.080;14.418;2022-11-11T12:43:44;101066.78;;;11.16;73.16
73633;BME280;61927;50.080;14.418;2022-11-11T12:46:47;101065.69;;;11.21;72.70
73633;BME280;61927;50.080;14.418;2022-11-11T12:52:13;101059.56;;;11.41;72.09
73633;BME280;61927;50.080;14.418;2022-11-11T12:54:52;101058.47;;;11.47;72.27
73633;BME280;61927;50.080;14.418;2022-11-11T12:58:09;101065.91;;;11.60;71.85
73633;BME280;61927;50.080;14.418;2022-11-11T13:03:55;101063.28;;;11.59;72.33
73633;BME280;61927;50.080;14.418;2022-11-11T13:06:43;101060.44;;;11.63;71.74
73633;BME280;61927;50.080;14.418;2022-11-11T13:12:20;101056.13;;;11.61;72.20
73633;BME280;61927;50.080;14.418;2022-11-11T13:17:36;101050.38;;;11.72;72.10
73633;BME280;61927;50.080;14.418;2022-11-11T13:20:06;101048.38;;;11.77;72.01
73633;BME280;61927;50.080;14.418;2022-11-11T13:22:38;101050.56;;;11.89;71.53
73633;BME280;61927;50.080;14.418;2022-11-11T13:25:05;101046.06;;;11.91;71.53
73633;BME280;61927;50.080;14.418;2022-11-11T13:27:47;101047.97;;;11.87;71.91
73633;BME280;61927;50.080;14.418;2022-11-11T13:35:36;101051.56;;;11.86;71.65
73633;BME280;61927;50.080;14.418;2022-11-11T13:38:05;101054.84;;;11.93;71.67
73633;BME280;61927;50.080;14.418;2022-11-11T13:40:37;101054.28;;;11.85;71.40
73633;BME280;61927;50.080;14.418;2022-11-11T13:43:05;101046.50;;;11.80;71.74
73633;BME280;61927;50.080;14.418;2022-11-11T13:45:41;101051.16;;;11.74;72.16
73633;BME280;61927;50.080;14.418;2022-11-11T13:48:23;101063.66;;;11.72;72.31
73633;BME280;61927;50.080;14.418;2022-11-11T13:50:50;101061.88;;;11.72;72.31
73633;BME280;61927;50.080;14.418;2022-11-11T13:53:31;101053.97;;;11.71;72.54
73633;BME280;61927;50.080;14.418;2022-11-11T13:56:02;101058.41;;;11.70;72.21
73633;BME280;61927;50.080;14.418;2022-11-11T13:58:31;101060.88;;;11.75;72.31
73633;BME280;61927;50.080;14.418;2022-11-11T14:01:08;101063.59;;;11.73;72.32
73633;BME280;61927;50.080;14.418;2022-11-11T14:08:50;101042.38;;;11.72;72.16
73633;BME280;61927;50.080;14.418;2022-11-11T14:13:55;101045.22;;;11.67;72.24
73633;BME280;61927;50.080;14.418;2022-11-11T14:24:25;101059.34;;;11.47;72.74
73633;BME280;61927;50.080;14.418;2022-11-11T14:26:58;101062.78;;;11.49;73.33
73633;BME280;61927;50.080;14.418;2022-11-11T14:29:29;101054.81;;;11.49;73.47
73633;BME280;61927;50.080;14.418;2022-11-11T14:34:53;101061.25;;;11.44;73.53
73633;BME280;61927;50.080;14.418;2022-11-11T14:39:54;101075.81;;;11.33;74.73
73633;BME280;61927;50.080;14.418;2022-11-11T14:44:59;101087.38;;;11.32;74.08
73633;BME280;61927;50.080;14.418;2022-11-11T14:47:38;101082.31;;;11.26;74.24
73633;BME280;61927;50.080;14.418;2022-11-11T14:50:40;101087.00;;;11.20;74.46
73633;BME280;61927;50.080;14.418;2022-11-11T14:53:11;101086.13;;;11.19;74.68
73633;BME280;61927;50.080;14.418;2022-11-11T14:55:39;101072.91;;;11.18;74.76